Time;durP1;ratioP1;P1;durP2;ratioP2;P2;SDS_P1;SDS_P2;PMS_P1;PMS_P2;Temp;Humidity;BMP_temperature;BMP_pressure;BME280_temperature;BME280_humidity;BME280_pressure;Samples;Min_cycle;Max_cycle;Signal;HPM_P1;HPM_P2
2022/10/20 03:53:05;;;;;;;3.55;3.12;;;;;;;6.02;99.44;101382.63;6579234;26;20055;-83
2022/10/20 03:56:09;;;;;;;5.75;3.62;;;;;;;5.99;99.79;101393.56;6640105;26;34322;-84
2022/10/20 03:59:12;;;;;;;4.07;3.47;;;;;;;5.96;99.35;101392.00;6640045;26;35418;-84
2022/10/20 04:02:25;;;;;;;5.62;3.50;;;;;;;5.93;100.00;101392.25;6642359;26;33640;-84
2022/10/20 04:05:27;;;;;;;3.12;2.83;;;;;;;5.93;99.58;101396.72;6643761;26;34226;-84
2022/10/20 04:08:30;;;;;;;3.62;2.85;;;;;;;5.93;99.45;101386.03;6643232;26;34860;-85
2022/10/20 04:11:33;;;;;;;4.75;3.53;;;;;;;5.93;99.89;101394.03;6643532;26;34152;-84
2022/10/20 04:14:35;;;;;;;5.65;3.80;;;;;;;5.85;100.00;101395.50;6640691;26;33927;-84
2022/10/20 04:17:38;;;;;;;5.70;3.55;;;;;;;5.82;100.00;101394.88;6644874;26;35119;-84
2022/10/20 04:20:47;;;;;;;6.15;3.40;;;;;;;5.79;100.00;101393.34;6647786;26;34861;-85
2022/10/20 04:23:50;;;;;;;6.90;4.03;;;;;;;5.82;100.00;101397.56;6646268;26;34891;-89
2022/10/20 04:26:52;;;;;;;5.80;3.03;;;;;;;5.74;100.00;101390.16;6636178;26;34176;-89
2022/10/20 04:29:55;;;;;;;13.77;3.83;;;;;;;5.68;100.00;101391.50;6634930;26;34796;-88
2022/10/20 04:32:58;;;;;;;12.65;4.30;;;;;;;5.67;100.00;101386.25;6634247;26;34009;-88
2022/10/20 04:36:08;;;;;;;6.15;3.75;;;;;;;5.61;100.00;101394.75;6634114;26;33972;-85
2022/10/20 04:39:11;;;;;;;5.07;3.70;;;;;;;5.67;100.00;101397.81;6634963;26;33611;-85
2022/10/20 04:42:14;;;;;;;6.70;3.70;;;;;;;5.67;100.00;101391.59;6637097;26;34595;-85
2022/10/20 04:45:16;;;;;;;6.35;3.55;;;;;;;5.67;100.00;101388.94;6635472;26;34603;-83
2022/10/20 04:48:19;;;;;;;6.15;3.80;;;;;;;5.66;100.00;101395.25;6634125;26;34157;-85
2022/10/20 04:51:22;;;;;;;5.18;3.72;;;;;;;5.66;100.00;101388.09;6634307;26;34477;-85
2022/10/20 04:54:25;;;;;;;5.40;3.45;;;;;;;5.58;100.00;101390.50;6634135;26;34039;-84
2022/10/20 04:57:27;;;;;;;7.22;3.83;;;;;;;5.60;100.00;101393.91;6634749;26;34413;-85
2022/10/20 05:00:36;;;;;;;6.57;3.92;;;;;;;5.58;100.00;101400.34;6634067;26;34465;-85
2022/10/20 05:03:39;;;;;;;7.25;4.18;;;;;;;5.48;100.00;101394.88;6634372;26;34752;-84
2022/10/20 05:06:41;;;;;;;9.32;4.95;;;;;;;5.59;100.00;101402.06;6634385;26;33542;-84
2022/10/20 05:09:44;;;;;;;8.23;4.20;;;;;;;5.62;100.00;101407.16;6640422;26;33666;-85
2022/10/20 05:12:47;;;;;;;9.95;4.60;;;;;;;5.60;100.00;101404.59;6634877;26;33918;-85
2022/10/20 05:15:52;;;;;;;6.50;4.12;;;;;;;5.56;100.00;101411.16;6633093;26;34031;-85
2022/10/20 05:18:56;;;;;;;7.80;4.45;;;;;;;5.48;100.00;101416.25;6634688;26;34036;-85
2022/10/20 05:21:59;;;;;;;6.00;4.05;;;;;;;5.45;100.00;101424.50;6614357;26;32802;-85
2022/10/20 05:25:02;;;;;;;7.80;5.00;;;;;;;5.42;100.00;101424.75;6614310;26;32749;-85
2022/10/20 05:28:25;;;;;;;6.43;4.15;;;;;;;5.41;100.00;101429.25;6641572;26;33899;-85
2022/10/20 05:31:28;;;;;;;11.32;5.03;;;;;;;5.39;100.00;101436.50;6646186;26;35437;-85
2022/10/20 05:34:31;;;;;;;12.37;4.60;;;;;;;5.39;100.00;101435.66;6633574;26;34603;-85
2022/10/20 05:37:34;;;;;;;7.45;4.87;;;;;;;5.46;100.00;101447.56;6634306;26;33768;-85
2022/10/20 05:40:41;;;;;;;10.38;4.93;;;;;;;5.56;100.00;101445.06;6633289;26;33696;-85
2022/10/20 05:43:49;;;;;;;9.75;5.22;;;;;;;5.63;100.00;101462.28;6633777;26;33696;-85
2022/10/20 05:46:51;;;;;;;8.45;5.20;;;;;;;5.73;100.00;101457.91;6634071;26;34091;-84
2022/10/20 05:49:54;;;;;;;13.60;5.57;;;;;;;5.71;100.00;101462.56;6632992;26;34272;-85
2022/10/20 05:52:58;;;;;;;10.10;5.32;;;;;;;5.71;100.00;101464.37;6633224;26;34643;-85
2022/10/20 05:56:05;;;;;;;9.98;5.00;;;;;;;5.82;100.00;101459.91;6613299;26;32816;-85
2022/10/20 05:59:09;;;;;;;12.23;5.05;;;;;;;5.88;100.00;101471.94;6612133;26;32615;-84
2022/10/20 06:02:12;;;;;;;9.80;4.95;;;;;;;5.95;100.00;101475.84;6633198;26;33650;-84
2022/10/20 06:05:15;;;;;;;9.02;5.00;;;;;;;6.08;100.00;101479.25;6633731;26;35305;-84
2022/10/20 06:08:17;;;;;;;9.05;4.68;;;;;;;6.21;100.00;101479.12;6633079;26;34021;-84
2022/10/20 06:11:22;;;;;;;9.32;5.12;;;;;;;6.26;100.00;101486.75;6632873;26;34861;-84
2022/10/20 06:14:24;;;;;;;5.90;4.30;;;;;;;6.37;100.00;101486.75;6633183;26;34732;-88
2022/10/20 06:17:27;;;;;;;14.10;5.10;;;;;;;6.43;100.00;101493.44;6633921;26;33850;-88
2022/10/20 06:20:31;;;;;;;8.93;5.05;;;;;;;6.48;100.00;101489.41;6633331;26;35033;-88
2022/10/20 06:23:34;;;;;;;7.45;4.37;;;;;;;6.63;100.00;101499.84;6633405;26;35209;-89
2022/10/20 06:26:38;;;;;;;7.37;4.60;;;;;;;6.76;100.00;101506.75;6632957;26;34193;-85
2022/10/20 06:29:41;;;;;;;10.50;5.00;;;;;;;6.86;100.00;101506.84;6632536;26;34640;-85
2022/10/20 06:32:44;;;;;;;13.35;5.47;;;;;;;6.95;100.00;101508.75;6633407;26;33825;-85
2022/10/20 06:35:46;;;;;;;8.07;5.15;;;;;;;7.11;100.00;101513.72;6632873;26;34722;-85
2022/10/20 06:38:55;;;;;;;9.32;4.95;;;;;;;7.25;100.00;101510.75;6633109;26;34023;-85
2022/10/20 06:41:58;;;;;;;12.18;5.60;;;;;;;7.43;98.61;101512.81;6633640;26;33672;-85
2022/10/20 06:45:02;;;;;;;11.38;6.65;;;;;;;7.55;98.42;101522.53;6634977;26;33570;-85
2022/10/20 06:48:05;;;;;;;13.80;7.12;;;;;;;7.66;95.65;101519.78;6635026;26;35149;-85
2022/10/20 06:51:18;;;;;;;10.90;6.55;;;;;;;7.77;94.92;101520.69;6634324;26;34220;-85
2022/10/20 06:54:21;;;;;;;9.50;6.32;;;;;;;7.88;93.59;101523.31;6633796;26;35249;-85
2022/10/20 06:57:23;;;;;;;9.93;5.68;;;;;;;8.07;92.37;101522.53;6634363;26;34367;-84
2022/10/20 07:00:26;;;;;;;17.95;6.68;;;;;;;8.18;90.04;101531.34;6633864;26;34445;-82
2022/10/20 07:03:30;;;;;;;10.50;6.80;;;;;;;8.25;89.99;101531.69;6634454;26;34010;-83
2022/10/20 07:06:37;;;;;;;15.20;6.20;;;;;;;8.36;90.15;101539.63;6633991;26;33684;-83
2022/10/20 07:09:39;;;;;;;14.93;7.25;;;;;;;8.45;89.62;101543.38;6633598;26;34529;-82
2022/10/20 07:12:42;;;;;;;14.25;7.45;;;;;;;8.45;89.65;101534.47;6633839;26;33995;-82
2022/10/20 07:15:45;;;;;;;15.90;7.35;;;;;;;8.66;88.35;101545.13;6634174;26;34157;-82
2022/10/20 07:18:48;;;;;;;13.82;8.18;;;;;;;8.81;88.05;101550.00;6634856;26;33935;-83
2022/10/20 07:21:51;;;;;;;16.95;7.90;;;;;;;9.09;87.23;101553.72;6634906;26;34063;-83
2022/10/20 07:24:54;;;;;;;15.02;7.18;;;;;;;9.27;86.29;101545.84;6633966;26;33927;-83
2022/10/20 07:27:56;;;;;;;11.88;6.10;;;;;;;9.49;84.71;101546.53;6634157;26;33916;-83
2022/10/20 07:31:05;;;;;;;11.40;6.53;;;;;;;9.69;83.11;101545.53;6634302;26;34763;-83
2022/10/20 07:34:10;;;;;;;16.00;6.62;;;;;;;9.81;81.31;101540.84;6639612;26;33575;-83
2022/10/20 07:37:28;;;;;;;11.93;6.47;;;;;;;10.01;80.26;101541.66;6647337;26;34114;-84
2022/10/20 07:40:33;;;;;;;8.25;5.05;;;;;;;10.13;79.66;101537.78;6635065;26;34345;-83
2022/10/20 07:43:38;;;;;;;6.78;5.20;;;;;;;10.27;76.91;101535.66;6615174;26;32277;-83
2022/10/20 07:46:40;;;;;;;7.87;4.97;;;;;;;10.39;76.72;101531.78;6635875;26;34020;-83
2022/10/20 07:49:43;;;;;;;7.12;4.80;;;;;;;10.62;75.66;101534.94;6637532;26;34487;-83
2022/10/20 07:52:53;;;;;;;9.23;4.72;;;;;;;10.83;75.50;101540.06;6638866;26;34636;-83
2022/10/20 08:00:32;;;;;;;6.28;4.62;;;;;;;10.93;71.51;101545.37;6636601;26;34467;-83
2022/10/20 08:03:36;;;;;;;9.10;4.70;;;;;;;11.04;70.78;101542.47;6617909;26;33035;-83
2022/10/20 08:06:39;;;;;;;5.53;4.18;;;;;;;11.18;70.31;101544.66;6642266;26;33711;-83
2022/10/20 08:09:41;;;;;;;6.45;4.30;;;;;;;11.30;69.85;101537.19;6634129;26;33472;-84
2022/10/20 08:12:44;;;;;;;8.07;4.05;;;;;;;11.46;68.99;101541.87;6633789;26;33787;-83
2022/10/20 08:15:47;;;;;;;5.78;4.10;;;;;;;11.50;69.66;101543.25;6636140;26;34283;-84
2022/10/20 08:18:55;;;;;;;9.68;4.18;;;;;;;11.61;67.97;101548.37;6615246;26;32849;-84
2022/10/20 08:22:02;;;;;;;5.15;4.07;;;;;;;11.67;68.31;101539.69;6639215;26;35160;-84
2022/10/20 08:25:05;;;;;;;4.40;4.00;;;;;;;11.93;68.08;101539.72;6619979;26;32616;-83
2022/10/20 08:28:08;;;;;;;5.35;3.22;;;;;;;12.21;66.26;101545.81;6642825;26;34750;-83
2022/10/20 08:31:11;;;;;;;5.30;3.90;;;;;;;12.08;65.48;101547.25;6641818;26;33926;-83
2022/10/20 08:34:14;;;;;;;7.32;3.62;;;;;;;12.01;65.67;101547.03;6617312;26;32532;-83
2022/10/20 08:37:17;;;;;;;8.45;4.18;;;;;;;12.20;65.83;101546.00;6613235;26;32879;-84
2022/10/20 08:40:30;;;;;;;4.78;3.42;;;;;;;12.14;65.21;101552.88;6613646;26;33544;-84
2022/10/20 08:43:39;;;;;;;4.65;3.50;;;;;;;12.20;65.06;101549.53;6613943;26;32608;-83
2022/10/20 08:46:42;;;;;;;3.80;3.22;;;;;;;12.19;64.34;101555.94;6634559;26;33882;-83
2022/10/20 08:49:45;;;;;;;6.50;3.83;;;;;;;12.04;65.49;101554.81;6645029;26;34203;-83
2022/10/20 08:52:55;;;;;;;4.03;3.62;;;;;;;12.19;65.97;101555.09;6648121;26;35387;-84
2022/10/20 08:55:58;;;;;;;6.45;3.70;;;;;;;12.10;65.58;101554.19;6633814;26;34239;-89
2022/10/20 08:59:02;;;;;;;4.25;3.80;;;;;;;12.12;65.27;101557.59;6633103;26;34645;-88
2022/10/20 09:02:14;;;;;;;5.78;3.72;;;;;;;12.34;65.14;101560.75;6611978;26;32698;-84
2022/10/20 09:05:21;;;;;;;7.97;4.50;;;;;;;12.14;64.96;101563.69;6613811;26;33150;-84
2022/10/20 09:08:28;;;;;;;7.20;4.12;;;;;;;12.24;66.08;101558.16;6613494;26;32850;-84
2022/10/20 09:11:38;;;;;;;7.28;4.00;;;;;;;12.46;65.30;101549.50;6613399;26;32034;-84
2022/10/20 09:14:41;;;;;;;16.08;3.87;;;;;;;12.72;64.25;101564.81;6633785;26;34382;-83
2022/10/20 09:17:57;;;;;;;6.18;4.00;;;;;;;12.70;63.15;101566.84;6613824;26;32602;-84
2022/10/20 09:21:07;;;;;;;5.37;4.07;;;;;;;12.65;63.00;101558.38;6633945;26;34643;-84
2022/10/20 09:24:11;;;;;;;6.05;3.90;;;;;;;12.72;64.44;101562.09;6633540;26;33720;-84
2022/10/20 09:27:28;;;;;;;26.12;5.50;;;;;;;12.77;63.02;101554.34;6613159;26;33900;-84
2022/10/20 09:30:34;;;;;;;6.37;4.37;;;;;;;13.11;63.57;101561.56;6612274;26;32419;-84
2022/10/20 09:33:36;;;;;;;5.40;3.55;;;;;;;13.39;62.28;101562.13;6634047;26;33923;-84
2022/10/20 09:36:40;;;;;;;8.90;3.58;;;;;;;13.43;60.97;101560.81;6633399;26;34371;-82
2022/10/20 09:39:45;;;;;;;5.60;3.65;;;;;;;13.61;60.96;101558.78;6633676;26;34178;-84
2022/10/20 09:43:01;;;;;;;6.25;4.15;;;;;;;13.65;60.26;101559.28;6635263;26;33690;-84
2022/10/20 09:46:07;;;;;;;6.97;3.90;;;;;;;13.67;61.21;101567.25;6636118;26;34484;-85
2022/10/20 09:49:36;;;;;;;9.00;3.70;;;;;;;13.75;58.78;101568.09;6635563;26;33727;-85
2022/10/20 09:52:46;;;;;;;9.18;3.62;;;;;;;13.57;58.80;101554.75;6640829;26;33962;-85
2022/10/20 09:55:51;;;;;;;4.47;3.45;;;;;;;13.14;60.29;101563.94;6649699;26;35509;-89
2022/10/20 09:58:55;;;;;;;5.80;3.22;;;;;;;13.29;61.11;101556.91;6646675;26;34274;-85
2022/10/20 10:02:01;;;;;;;4.43;3.85;;;;;;;13.69;60.56;101559.78;6634681;26;34540;-85
2022/10/20 10:05:19;;;;;;;7.62;3.65;;;;;;;13.65;59.20;101553.03;6633884;26;33776;-85
2022/10/20 10:08:24;;;;;;;5.80;3.95;;;;;;;13.62;59.58;101562.34;6613376;26;32644;-84
2022/10/20 10:11:35;;;;;;;6.72;3.72;;;;;;;13.81;58.83;101543.06;6633449;26;35320;-84
2022/10/20 10:14:47;;;;;;;;;;;;;;;13.99;58.87;101544.72;6633717;26;34995;-84
2022/10/20 10:17:50;;;;;;;7.05;3.87;;;;;;;14.08;58.10;101540.97;6614056;26;33282;-84
2022/10/20 10:21:16;;;;;;;6.35;4.43;;;;;;;14.33;57.05;101541.75;6633797;26;35387;-84
2022/10/20 10:24:36;;;;;;;5.07;3.90;;;;;;;14.37;56.40;101536.84;6613566;26;32268;-84
2022/10/20 10:27:39;;;;;;;4.70;3.70;;;;;;;14.37;57.67;101529.56;6635470;26;34446;-84
2022/10/20 10:30:43;;;;;;;9.90;3.53;;;;;;;14.49;56.71;101524.59;6625443;26;32707;-84
2022/10/20 10:33:59;;;;;;;6.28;3.60;;;;;;;14.81;57.60;101520.94;6642021;26;35453;-84
2022/10/20 10:37:02;;;;;;;3.92;3.53;;;;;;;14.80;55.17;101513.84;6633672;26;34529;-85
2022/10/20 10:40:21;;;;;;;6.30;3.80;;;;;;;15.09;54.47;101515.00;6633139;26;33515;-85
2022/10/20 10:43:44;;;;;;;5.65;3.37;;;;;;;15.07;54.01;101509.78;6634951;26;34759;-85
2022/10/20 10:47:08;;;;;;;7.45;3.35;;;;;;;15.16;53.13;101497.00;6632615;26;33503;-85
2022/10/20 10:50:52;;;;;;;8.73;3.80;;;;;;;15.11;53.57;101504.81;6633128;26;34108;-85
2022/10/20 10:54:15;;;;;;;4.75;3.53;;;;;;;15.29;53.84;101508.06;6577974;26;35131;-84
2022/10/20 10:57:46;;;;;;;3.67;3.33;;;;;;;15.55;52.47;101485.97;6643767;26;34799;-85
2022/10/20 11:01:18;;;;;;;6.12;3.80;;;;;;;15.62;53.58;101480.69;6636494;26;33749;-84
2022/10/20 11:04:28;;;;;;;6.60;3.75;;;;;;;15.87;50.90;101493.00;6632953;26;34558;-88
2022/10/20 11:07:30;;;;;;;7.18;3.95;;;;;;;16.22;49.92;101479.72;6614305;26;32655;-89
2022/10/20 11:11:01;;;;;;;7.57;3.78;;;;;;;16.49;49.77;101477.34;6633147;26;34525;-85
2022/10/20 11:14:23;;;;;;;5.10;4.15;;;;;;;16.84;48.35;101472.97;6632842;26;34783;-85
2022/10/20 11:17:54;;;;;;;5.85;4.15;;;;;;;17.02;48.29;101469.00;6612930;26;32725;-85
2022/10/20 11:21:04;;;;;;;5.90;3.95;;;;;;;17.17;47.97;101457.03;6632915;26;34738;-84
2022/10/20 11:24:22;;;;;;;5.47;3.92;;;;;;;17.79;46.28;101455.47;6613515;26;32699;-84
2022/10/20 11:27:28;;;;;;;3.97;3.22;;;;;;;17.73;45.47;101450.78;6614807;26;32877;-85
2022/10/20 11:30:32;;;;;;;4.93;3.50;;;;;;;18.63;44.35;101439.94;6607024;26;222018;-84
2022/10/20 11:33:44;;;;;;;5.12;3.47;;;;;;;19.44;43.17;101437.13;6643151;26;34474;-84
2022/10/20 11:36:55;;;;;;;4.00;3.42;;;;;;;19.34;41.66;101436.72;6631744;26;33968;-85
2022/10/20 11:40:08;;;;;;;3.42;3.12;;;;;;;20.20;39.28;101422.09;6622878;26;33756;-85
2022/10/20 11:43:31;;;;;;;3.75;3.10;;;;;;;20.69;38.34;101421.47;6634941;26;34150;-89
2022/10/20 11:46:50;;;;;;;6.50;3.50;;;;;;;22.55;35.57;101411.53;6614928;26;32301;-85
2022/10/20 11:49:53;;;;;;;4.82;3.25;;;;;;;23.98;32.75;101414.25;6635027;26;34708;-85
2022/10/20 11:53:09;;;;;;;3.78;3.37;;;;;;;25.62;29.90;101396.09;6614340;26;33300;-85
2022/10/20 11:56:40;;;;;;;3.72;2.70;;;;;;;25.88;29.14;101394.56;6634960;26;33567;-85
2022/10/20 12:00:03;;;;;;;2.50;2.30;;;;;;;27.00;27.56;101389.50;6635170;26;33809;-85
2022/10/20 12:03:50;;;;;;;5.15;2.20;;;;;;;26.18;27.73;101398.84;6634626;26;33981;-85
2022/10/20 12:07:25;;;;;;;3.37;1.92;;;;;;;25.81;27.49;101388.38;6563557;26;33527;-85
2022/10/20 12:10:48;;;;;;;3.30;2.35;;;;;;;25.88;27.88;101391.81;6636946;26;34450;-86
2022/10/20 12:13:57;;;;;;;2.95;2.10;;;;;;;28.30;24.75;101388.12;6636322;26;33923;-86
2022/10/20 12:17:19;;;;;;;;;;;;;;;29.20;24.06;101396.06;6615905;26;33674;-86
2022/10/20 12:20:23;;;;;;;2.35;1.60;;;;;;;28.45;23.41;101382.66;6641656;26;34892;-86
2022/10/20 12:23:44;;;;;;;2.10;1.90;;;;;;;29.04;23.19;101380.53;6636595;26;34161;-86
2022/10/20 12:27:08;;;;;;;2.92;2.15;;;;;;;29.64;22.47;101369.69;6633836;26;33681;-86
2022/10/20 12:30:17;;;;;;;3.05;1.75;;;;;;;30.91;21.76;101366.25;6634321;26;33859;-85
2022/10/20 12:33:33;;;;;;;1.83;1.73;;;;;;;31.11;20.80;101373.59;6614169;26;34077;-85
2022/10/20 12:36:39;;;;;;;2.80;1.60;;;;;;;28.20;23.11;101374.25;6634175;26;34393;-85
2022/10/20 12:39:43;;;;;;;2.72;1.80;;;;;;;26.69;25.76;101364.34;6635916;26;33516;-86
2022/10/20 12:42:48;;;;;;;3.35;1.83;;;;;;;24.42;28.32;101359.56;6615419;26;34576;-86
2022/10/20 12:45:56;;;;;;;2.78;2.00;;;;;;;22.45;31.63;101364.56;6634985;26;33950;-86
2022/10/20 12:49:05;;;;;;;3.97;2.30;;;;;;;20.36;34.33;101365.03;6614902;26;33578;-88
2022/10/20 12:52:20;;;;;;;2.47;1.90;;;;;;;19.18;37.45;101359.63;6635140;26;34169;-86
2022/10/20 12:55:34;;;;;;;4.45;2.22;;;;;;;18.77;37.87;101348.91;6614584;26;32716;-86
2022/10/20 12:59:08;;;;;;;3.20;2.03;;;;;;;17.68;39.99;101347.88;6615117;26;32988;-86
2022/10/20 13:02:12;;;;;;;2.70;1.87;;;;;;;17.08;42.59;101349.34;6634816;26;33562;-86
2022/10/20 13:05:18;;;;;;;3.53;2.45;;;;;;;16.86;41.75;101345.81;6634198;26;33633;-85
2022/10/20 13:08:23;;;;;;;2.87;2.30;;;;;;;16.03;43.36;101353.47;6615114;26;32729;-86
2022/10/20 13:11:31;;;;;;;2.70;2.50;;;;;;;15.73;44.85;101349.91;6614767;26;33141;-86
2022/10/20 13:14:43;;;;;;;4.15;2.50;;;;;;;15.42;45.73;101340.06;6634768;26;34151;-86
2022/10/20 13:18:05;;;;;;;5.53;2.95;;;;;;;15.35;47.10;101341.00;6635059;26;33751;-85
2022/10/20 13:21:24;;;;;;;6.85;2.60;;;;;;;15.34;46.36;101337.44;6619061;26;33064;-85
2022/10/20 13:24:31;;;;;;;3.00;2.53;;;;;;;15.12;46.88;101341.91;6643152;26;34418;-85
2022/10/20 13:27:34;;;;;;;2.40;2.20;;;;;;;14.96;47.97;101344.75;6617144;26;33269;-85
2022/10/20 13:31:06;;;;;;;4.90;2.70;;;;;;;14.86;48.45;101342.31;6615744;26;33580;-85
2022/10/20 13:34:24;;;;;;;2.40;2.20;;;;;;;14.70;49.11;101340.56;6638442;26;33849;-86
2022/10/20 13:37:36;;;;;;;3.85;2.83;;;;;;;14.71;48.21;101336.84;6637497;26;34179;-85
2022/10/20 13:41:00;;;;;;;4.25;2.60;;;;;;;14.69;48.52;101341.59;6635156;26;34080;-84
2022/10/20 13:44:07;;;;;;;3.45;2.35;;;;;;;14.40;49.40;101341.44;6614765;26;32434;-84
2022/10/20 13:47:25;;;;;;;2.92;2.50;;;;;;;14.32;49.81;101338.78;6614302;26;32538;-85
2022/10/20 13:50:42;;;;;;;4.43;2.62;;;;;;;14.27;51.21;101334.75;6614526;26;32511;-84
2022/10/20 13:53:49;;;;;;;3.08;2.40;;;;;;;14.32;51.19;101333.34;6615038;26;32370;-85
2022/10/20 13:56:53;;;;;;;3.17;2.58;;;;;;;14.26;50.07;101334.91;6635802;26;34438;-86
2022/10/20 14:00:02;;;;;;;6.80;2.67;;;;;;;14.06;50.56;101335.34;6618947;26;33187;-85
2022/10/20 14:03:16;;;;;;;2.90;2.40;;;;;;;13.93;52.27;101331.53;6623164;26;33330;-85
2022/10/20 14:06:25;;;;;;;4.82;3.03;;;;;;;14.04;51.09;101332.00;6656025;26;34309;-86
2022/10/20 14:09:28;;;;;;;4.53;2.50;;;;;;;14.02;50.78;101325.06;6636093;26;32639;-85
2022/10/20 14:12:32;;;;;;;4.32;2.47;;;;;;;14.00;50.95;101318.97;6643426;26;34203;-85
2022/10/20 14:15:35;;;;;;;3.12;2.47;;;;;;;13.95;50.97;101324.06;6653650;26;34120;-85
2022/10/20 14:18:39;;;;;;;3.17;2.40;;;;;;;13.83;51.41;101312.78;6642391;26;34094;-85
2022/10/20 14:21:44;;;;;;;4.80;2.78;;;;;;;13.71;52.74;101308.78;6614985;26;33417;-87
2022/10/20 14:24:54;;;;;;;3.33;2.75;;;;;;;13.69;53.38;101316.22;6633859;26;34054;-85
2022/10/20 14:27:57;;;;;;;5.07;2.30;;;;;;;13.57;53.56;101310.34;6634368;26;34565;-85
2022/10/20 14:31:03;;;;;;;5.03;2.55;;;;;;;13.50;52.78;101312.09;6613648;26;34064;-84
2022/10/20 14:34:17;;;;;;;5.25;2.55;;;;;;;13.49;53.24;101315.81;6633900;26;35043;-85
2022/10/20 14:37:30;;;;;;;2.58;2.37;;;;;;;13.42;53.73;101309.41;6613299;26;33093;-86
2022/10/20 14:40:36;;;;;;;3.28;2.22;;;;;;;13.37;54.03;101312.63;6627777;26;32656;-85
2022/10/20 14:43:44;;;;;;;2.85;2.45;;;;;;;13.34;53.70;101313.00;6640153;26;34391;-85
2022/10/20 14:46:48;;;;;;;3.78;2.25;;;;;;;13.36;54.53;101305.53;6620904;26;33351;-85
2022/10/20 14:49:53;;;;;;;2.22;2.10;;;;;;;13.33;53.49;101305.88;6623598;26;33091;-84
2022/10/20 14:52:56;;;;;;;7.12;2.40;;;;;;;13.24;55.09;101310.41;6634457;26;34152;-85
2022/10/20 14:56:01;;;;;;;6.60;2.45;;;;;;;13.19;55.30;101304.69;6613686;26;32895;-85
2022/10/20 14:59:13;;;;;;;5.35;2.60;;;;;;;13.16;55.08;101310.44;6633708;26;34272;-85
2022/10/20 15:02:20;;;;;;;5.95;2.15;;;;;;;13.07;56.39;101300.66;6614256;26;33596;-85
2022/10/20 15:05:25;;;;;;;3.05;2.10;;;;;;;13.13;55.11;101299.97;6635233;26;34342;-86
2022/10/20 15:08:28;;;;;;;2.53;2.33;;;;;;;13.05;55.35;101302.69;6637560;26;34649;-85
2022/10/20 15:11:31;;;;;;;4.53;2.25;;;;;;;13.00;56.05;101297.78;6635626;26;34627;-86
2022/10/20 15:14:34;;;;;;;4.90;2.28;;;;;;;12.86;56.07;101293.91;6637510;26;33914;-85
2022/10/20 15:17:45;;;;;;;3.58;2.30;;;;;;;12.86;55.79;101288.50;6615531;26;33769;-85
2022/10/20 15:20:53;;;;;;;4.62;2.33;;;;;;;12.82;56.26;101289.88;6615373;26;33358;-85
2022/10/20 15:23:55;;;;;;;2.72;2.30;;;;;;;12.73;56.61;101281.97;6635277;26;34788;-85
2022/10/20 15:26:59;;;;;;;2.67;2.47;;;;;;;12.62;57.04;101286.69;6616097;26;33427;-85
2022/10/20 15:30:03;;;;;;;2.97;2.20;;;;;;;12.56;57.14;101281.94;6615440;26;33230;-85
2022/10/20 15:33:08;;;;;;;6.93;2.50;;;;;;;12.53;57.65;101278.75;6635413;26;34548;-84
2022/10/20 15:36:15;;;;;;;3.03;2.65;;;;;;;12.52;57.36;101282.44;6615310;26;32329;-85
2022/10/20 15:39:18;;;;;;;6.40;2.53;;;;;;;12.37;58.20;101277.75;6635785;26;34315;-85
2022/10/20 15:42:21;;;;;;;2.87;2.17;;;;;;;12.33;58.01;101278.22;6636543;26;34038;-85
2022/10/20 15:45:24;;;;;;;6.70;2.47;;;;;;;12.25;59.10;101277.22;6615498;26;34011;-89
2022/10/20 15:48:27;;;;;;;2.92;2.40;;;;;;;12.19;59.23;101277.84;6615222;26;33772;-89
2022/10/20 15:51:33;;;;;;;4.50;2.40;;;;;;;12.21;59.05;101275.00;6615567;26;32939;-89
2022/10/20 15:54:35;;;;;;;3.50;2.72;;;;;;;12.18;59.68;101280.75;6634903;26;34563;-86
